Time;durP1;ratioP1;P1;durP2;ratioP2;P2;SDS_P1;SDS_P2;PMS_P1;PMS_P2;Temp;Humidity;BMP_temperature;BMP_pressure;BME280_temperature;BME280_humidity;BME280_pressure;Samples;Min_cycle;Max_cycle;Signal;HPM_P1;HPM_P2
2024/01/09 00:00:12;;;;;;;16.07;7.53;;;-5.80;99.90;;;;;;5031818;28;20208;-76
2024/01/09 00:02:39;;;;;;;13.97;6.30;;;-5.80;1.00;;;;;;5038278;28;20215;-76
2024/01/09 00:05:08;;;;;;;16.63;7.10;;;-5.70;1.00;;;;;;5032554;28;20819;-76
2024/01/09 00:07:35;;;;;;;14.80;7.33;;;-5.80;1.00;;;;;;5029577;28;20580;-76
2024/01/09 00:10:01;;;;;;;14.33;7.00;;;-5.80;1.00;;;;;;5033003;28;20211;-76
2024/01/09 00:12:28;;;;;;;15.27;7.43;;;-5.80;1.00;;;;;;5034003;28;20195;-76
2024/01/09 00:14:55;;;;;;;16.87;8.03;;;-5.80;1.00;;;;;;5034674;28;20227;-76
2024/01/09 00:17:22;;;;;;;17.60;8.23;;;-5.90;1.00;;;;;;5033218;28;20207;-76
2024/01/09 00:19:48;;;;;;;16.57;8.03;;;-5.90;1.00;;;;;;5028732;28;20199;-76
2024/01/09 00:22:16;;;;;;;16.53;7.43;;;-5.80;1.00;;;;;;5031302;28;20238;-76
2024/01/09 00:24:43;;;;;;;16.57;7.80;;;-5.90;1.00;;;;;;5032003;28;20223;-76
2024/01/09 00:27:10;;;;;;;14.20;6.87;;;-6.00;1.00;;;;;;5035836;28;20206;-76
2024/01/09 00:29:37;;;;;;;16.30;6.83;;;-5.90;1.00;;;;;;5040946;28;20199;-76
2024/01/09 00:32:04;;;;;;;14.40;6.93;;;-5.90;1.00;;;;;;5034057;28;20591;-76
2024/01/09 00:34:31;;;;;;;18.30;8.40;;;-5.90;1.00;;;;;;5037744;28;20219;-76
2024/01/09 00:36:57;;;;;;;15.40;7.40;;;-6.00;1.00;;;;;;5035407;28;20578;-76
2024/01/09 00:39:26;;;;;;;18.23;7.83;;;-6.00;1.00;;;;;;5034616;28;20676;-76
2024/01/09 00:41:52;;;;;;;16.47;8.67;;;-6.00;1.00;;;;;;5036175;28;21169;-76
2024/01/09 00:44:19;;;;;;;16.83;8.20;;;-6.10;1.00;;;;;;5035658;28;20219;-76
2024/01/09 00:46:47;;;;;;;17.47;7.47;;;-6.00;1.00;;;;;;5030952;28;20223;-76
2024/01/09 00:49:13;;;;;;;16.67;7.73;;;-6.10;1.00;;;;;;5035748;28;20229;-76
2024/01/09 00:51:40;;;;;;;15.03;7.57;;;-6.10;1.00;;;;;;5033900;28;20206;-76
2024/01/09 00:54:07;;;;;;;15.80;7.90;;;-6.00;1.00;;;;;;5030035;28;20230;-76
2024/01/09 00:56:35;;;;;;;18.53;8.70;;;-6.00;1.00;;;;;;5031277;28;20208;-76
2024/01/09 00:59:02;;;;;;;18.73;8.80;;;-6.00;1.00;;;;;;5034878;28;20203;-76
2024/01/09 01:01:29;;;;;;;16.63;8.83;;;-6.10;1.00;;;;;;5033212;28;20208;-76
2024/01/09 01:03:55;;;;;;;16.53;8.03;;;-6.10;1.00;;;;;;5034417;28;20230;-76
2024/01/09 01:06:22;;;;;;;17.83;9.07;;;-6.20;1.00;;;;;;5033717;28;20440;-76
2024/01/09 01:08:49;;;;;;;17.57;8.57;;;-6.20;1.00;;;;;;5030657;28;20206;-76
2024/01/09 01:11:16;;;;;;;19.17;8.97;;;-6.20;1.00;;;;;;5033327;28;20207;-76
2024/01/09 01:13:44;;;;;;;17.30;8.30;;;-6.20;1.00;;;;;;5033207;28;20225;-76
2024/01/09 01:16:10;;;;;;;16.83;7.70;;;-6.10;8.50;;;;;;5030559;28;20208;-76
2024/01/09 01:18:38;;;;;;;18.40;9.27;;;-6.10;1.00;;;;;;5032387;28;20207;-76
2024/01/09 01:21:05;;;;;;;18.73;8.97;;;-6.20;31.50;;;;;;5032652;28;20285;-76
2024/01/09 01:23:36;;;;;;;20.80;9.27;;;-6.20;99.90;;;;;;5031925;28;20232;-76
2024/01/09 01:26:03;;;;;;;16.77;8.30;;;-6.10;83.80;;;;;;5031288;28;20298;-76
2024/01/09 01:28:29;;;;;;;16.83;7.67;;;-6.20;99.90;;;;;;5032582;28;20210;-76
2024/01/09 01:30:58;;;;;;;18.03;7.70;;;-6.20;97.70;;;;;;5031339;28;20207;-76
2024/01/09 01:33:24;;;;;;;16.53;7.80;;;-6.20;1.00;;;;;;5032606;28;20591;-76
2024/01/09 01:35:51;;;;;;;18.57;9.13;;;-6.10;1.00;;;;;;5031141;28;20210;-76
2024/01/09 01:38:18;;;;;;;17.83;8.87;;;-6.10;1.00;;;;;;5033089;28;20199;-76
2024/01/09 01:40:45;;;;;;;17.63;9.00;;;-6.20;1.00;;;;;;5032682;28;20670;-76
2024/01/09 01:43:11;;;;;;;15.97;8.70;;;-6.20;99.90;;;;;;5033719;28;20265;-76
2024/01/09 01:45:38;;;;;;;18.53;8.33;;;-6.30;99.90;;;;;;5031979;28;20199;-76
2024/01/09 01:48:08;;;;;;;19.23;9.33;;;-6.10;80.90;;;;;;5032944;28;20205;-76
2024/01/09 01:50:35;;;;;;;17.87;8.13;;;-6.20;93.50;;;;;;5032117;28;20211;-76
2024/01/09 01:53:03;;;;;;;18.23;8.33;;;-6.20;99.90;;;;;;5031100;28;20226;-76
2024/01/09 01:55:31;;;;;;;16.97;8.07;;;-6.20;99.90;;;;;;5030836;28;20206;-76
2024/01/09 01:57:59;;;;;;;17.27;8.00;;;-6.30;99.90;;;;;;5029813;28;20298;-76
2024/01/09 02:00:27;;;;;;;18.10;8.93;;;-5.90;99.90;;;;;;5037178;28;20203;-76
2024/01/09 02:02:54;;;;;;;20.03;9.03;;;-6.20;99.90;;;;;;5030553;28;20219;-76
2024/01/09 02:05:25;;;;;;;18.60;8.53;;;-6.30;99.90;;;;;;5033457;28;20196;-76
2024/01/09 02:07:54;;;;;;;19.97;8.80;;;-6.30;99.90;;;;;;5029781;28;20681;-76
2024/01/09 02:10:21;;;;;;;19.83;9.30;;;-6.20;99.90;;;;;;5035408;28;20347;-76
2024/01/09 02:12:48;;;;;;;19.67;9.37;;;-6.20;25.60;;;;;;5030384;28;20214;-76
2024/01/09 02:15:15;;;;;;;17.60;8.50;;;-6.20;24.50;;;;;;5040800;28;20203;-76
2024/01/09 02:17:42;;;;;;;20.00;8.77;;;-6.30;1.00;;;;;;5037709;28;20199;-76
2024/01/09 02:20:10;;;;;;;18.73;8.70;;;-6.20;1.00;;;;;;5038406;28;20575;-76
2024/01/09 02:22:38;;;;;;;19.47;8.37;;;-6.30;1.00;;;;;;5039503;28;20223;-76
2024/01/09 02:25:06;;;;;;;18.07;7.37;;;-6.30;1.00;;;;;;5036976;28;20210;-76
2024/01/09 02:27:47;;;;;;;18.73;8.33;;;-6.30;1.00;;;;;;5037153;28;20199;-76
2024/01/09 02:30:17;;;;;;;19.13;8.83;;;-6.30;1.00;;;;;;5039896;28;20575;-76
2024/01/09 02:32:43;;;;;;;16.27;8.00;;;-6.40;1.00;;;;;;5035723;28;20817;-76
2024/01/09 02:35:10;;;;;;;18.53;8.57;;;-6.30;1.00;;;;;;5040069;28;20207;-76
2024/01/09 02:37:37;;;;;;;18.67;8.93;;;-6.30;1.00;;;;;;5040108;28;20199;-76
2024/01/09 02:40:07;;;;;;;18.97;8.53;;;-6.30;25.50;;;;;;5039206;28;20356;-76
2024/01/09 02:42:34;;;;;;;19.13;8.67;;;-6.30;1.00;;;;;;5038754;28;20229;-76
2024/01/09 02:45:00;;;;;;;15.83;7.70;;;-6.40;1.00;;;;;;5038154;28;20210;-76
2024/01/09 02:47:29;;;;;;;18.73;9.00;;;-6.30;1.00;;;;;;5038028;28;20214;-76
2024/01/09 02:49:55;;;;;;;18.40;8.90;;;-6.50;1.00;;;;;;5036253;28;20208;-76
2024/01/09 02:52:22;;;;;;;19.83;9.13;;;-6.40;1.00;;;;;;5038029;28;20196;-76
2024/01/09 02:54:49;;;;;;;20.50;8.27;;;-6.50;1.00;;;;;;5035743;28;20221;-75
2024/01/09 02:57:16;;;;;;;15.90;8.00;;;-6.50;1.00;;;;;;5036077;28;20665;-76
2024/01/09 02:59:43;;;;;;;20.27;9.03;;;-6.50;1.00;;;;;;5036921;28;20204;-76
2024/01/09 03:02:09;;;;;;;19.13;8.87;;;-6.50;1.00;;;;;;5035717;28;20210;-76
2024/01/09 03:04:37;;;;;;;20.53;10.27;;;-6.60;1.00;;;;;;5045191;28;20586;-76
2024/01/09 03:07:04;;;;;;;16.80;9.10;;;-6.50;87.90;;;;;;5040732;28;20242;-76
2024/01/09 03:09:33;;;;;;;19.90;8.97;;;-6.50;99.90;;;;;;5039361;28;20206;-76
2024/01/09 03:11:59;;;;;;;18.13;9.27;;;-6.60;27.90;;;;;;5039140;28;20277;-76
2024/01/09 03:14:26;;;;;;;19.63;9.53;;;-6.60;99.90;;;;;;5038207;28;20314;-76
2024/01/09 03:16:53;;;;;;;18.43;9.23;;;-6.60;99.90;;;;;;5037651;28;20214;-76
2024/01/09 03:19:20;;;;;;;18.87;8.43;;;-6.60;99.90;;;;;;5038604;28;20203;-76
2024/01/09 03:21:48;;;;;;;19.73;8.80;;;-6.70;99.90;;;;;;5037451;28;20282;-76
2024/01/09 03:24:16;;;;;;;19.43;9.03;;;-6.70;99.90;;;;;;5035246;28;20231;-76
2024/01/09 03:26:43;;;;;;;20.43;10.03;;;-6.60;36.00;;;;;;5034086;28;20305;-76
2024/01/09 03:29:10;;;;;;;19.80;9.13;;;-6.70;99.90;;;;;;5032818;28;20555;-75
2024/01/09 03:31:36;;;;;;;17.00;7.83;;;-6.70;99.90;;;;;;5033306;28;20290;-76
2024/01/09 03:34:03;;;;;;;19.80;8.63;;;-6.70;99.90;;;;;;5032780;28;20222;-76
2024/01/09 03:36:31;;;;;;;20.20;9.93;;;-7.00;99.90;;;;;;5034953;28;20204;-76
2024/01/09 03:38:59;;;;;;;20.17;9.70;;;-6.60;99.90;;;;;;5030507;28;20706;-76
2024/01/09 03:41:26;;;;;;;18.90;9.43;;;-6.70;99.90;;;;;;5035575;28;20605;-75
2024/01/09 03:43:53;;;;;;;18.73;8.27;;;-6.70;99.90;;;;;;5033595;28;20596;-75
2024/01/09 03:46:19;;;;;;;20.00;9.60;;;-6.60;99.90;;;;;;5034595;28;20278;-77
2024/01/09 03:48:48;;;;;;;21.10;9.70;;;-6.70;99.90;;;;;;5033976;28;20203;-75
2024/01/09 03:51:14;;;;;;;20.40;9.63;;;-6.70;99.90;;;;;;5032296;28;20204;-75
2024/01/09 03:53:41;;;;;;;18.70;9.60;;;-6.70;99.90;;;;;;5033816;28;20215;-75
2024/01/09 03:56:09;;;;;;;19.47;9.17;;;-6.70;99.90;;;;;;5032935;28;20212;-75
2024/01/09 03:58:36;;;;;;;19.93;8.93;;;-6.70;99.90;;;;;;5032762;28;20204;-75
2024/01/09 04:01:03;;;;;;;17.97;8.17;;;-6.80;99.90;;;;;;5040997;28;20210;-75
2024/01/09 04:03:29;;;;;;;18.50;9.20;;;-6.70;99.90;;;;;;5036816;28;20222;-76
2024/01/09 04:05:56;;;;;;;19.13;8.87;;;-6.70;99.90;;;;;;5032510;28;20689;-75
2024/01/09 04:08:23;;;;;;;19.70;9.67;;;-6.70;97.00;;;;;;5037811;28;21104;-75
2024/01/09 04:10:50;;;;;;;19.50;8.50;;;-6.70;99.90;;;;;;5031833;28;20651;-75
2024/01/09 04:13:19;;;;;;;20.27;9.30;;;-6.80;99.90;;;;;;5032856;28;20223;-75
2024/01/09 04:15:46;;;;;;;19.97;8.53;;;-6.70;99.90;;;;;;5034723;28;20207;-74
2024/01/09 04:18:13;;;;;;;20.37;8.83;;;-6.80;99.90;;;;;;5034678;28;20228;-75
2024/01/09 04:20:40;;;;;;;18.50;9.00;;;-6.80;99.90;;;;;;5034136;28;20208;-75
2024/01/09 04:23:07;;;;;;;20.80;9.97;;;-6.80;99.90;;;;;;5032111;28;20231;-75
2024/01/09 04:25:34;;;;;;;19.53;8.93;;;-5.90;96.20;;;;;;5034861;28;20196;-76
2024/01/09 04:28:01;;;;;;;18.90;8.90;;;-6.80;1.00;;;;;;5034987;28;20199;-77
2024/01/09 04:30:29;;;;;;;20.60;10.60;;;-6.80;53.10;;;;;;5031233;28;20204;-76
2024/01/09 04:32:56;;;;;;;18.17;8.63;;;-6.70;1.00;;;;;;5030608;28;20219;-76
2024/01/09 04:35:23;;;;;;;17.97;8.43;;;-6.80;1.00;;;;;;5030759;28;20211;-76
2024/01/09 04:37:49;;;;;;;16.53;8.67;;;-6.80;1.00;;;;;;5029930;28;20773;-76
2024/01/09 04:40:16;;;;;;;21.00;9.63;;;-6.80;33.20;;;;;;5034466;28;20649;-76
2024/01/09 04:42:43;;;;;;;16.67;8.73;;;-6.90;1.00;;;;;;5036207;28;20195;-76
2024/01/09 04:45:10;;;;;;;20.30;9.20;;;-6.80;1.00;;;;;;5035506;28;20206;-76
2024/01/09 04:47:38;;;;;;;21.03;9.23;;;-6.90;1.00;;;;;;5034763;28;20202;-76
2024/01/09 04:50:06;;;;;;;20.07;9.10;;;-6.90;16.90;;;;;;5034596;28;20669;-76
2024/01/09 04:52:34;;;;;;;19.30;9.20;;;-6.90;19.70;;;;;;5033969;28;20500;-76
2024/01/09 04:55:01;;;;;;;18.60;8.93;;;-6.80;1.00;;;;;;5032064;28;20215;-76
2024/01/09 04:57:28;;;;;;;21.30;8.97;;;-6.80;1.00;;;;;;5031637;28;20207;-76
2024/01/09 04:59:54;;;;;;;18.37;8.80;;;-6.80;34.20;;;;;;5036022;28;20219;-75
2024/01/09 05:02:21;;;;;;;18.50;9.33;;;-6.90;30.30;;;;;;5030840;28;20210;-76
2024/01/09 05:04:49;;;;;;;21.47;8.70;;;-6.90;99.90;;;;;;5040684;28;20227;-76
2024/01/09 05:07:16;;;;;;;21.83;10.47;;;-6.80;83.10;;;;;;5040757;28;20196;-76
2024/01/09 05:09:43;;;;;;;18.63;8.97;;;-6.80;99.90;;;;;;5041597;28;20210;-76
2024/01/09 05:12:10;;;;;;;16.57;8.10;;;-6.80;99.90;;;;;;5034080;28;20208;-76
2024/01/09 05:14:36;;;;;;;17.70;9.33;;;-6.80;1.00;;;;;;5034212;28;20215;-76
2024/01/09 05:17:03;;;;;;;19.07;8.23;;;-6.80;1.00;;;;;;5036663;28;20244;-76
2024/01/09 05:19:30;;;;;;;15.73;6.47;;;-6.80;67.00;;;;;;5037754;28;21689;-76
2024/01/09 05:21:58;;;;;;;20.17;9.07;;;-6.80;1.00;;;;;;5033801;28;20208;-76
2024/01/09 05:24:25;;;;;;;17.40;7.87;;;-6.80;1.00;;;;;;5030877;28;20234;-76
2024/01/09 05:26:52;;;;;;;18.20;8.40;;;-6.80;1.00;;;;;;5035322;28;20210;-76
2024/01/09 05:29:19;;;;;;;17.47;7.97;;;-6.90;1.00;;;;;;5033692;28;20207;-76
2024/01/09 05:31:46;;;;;;;20.83;9.00;;;-6.90;1.00;;;;;;5033044;28;20210;-76
2024/01/09 05:34:13;;;;;;;17.33;8.10;;;-6.90;1.00;;;;;;5034544;28;20306;-76
2024/01/09 05:36:39;;;;;;;18.73;8.37;;;-6.90;1.00;;;;;;5030513;28;20199;-76
2024/01/09 05:39:07;;;;;;;18.77;8.60;;;-6.90;1.00;;;;;;5031170;28;20226;-76
2024/01/09 05:41:35;;;;;;;19.63;8.77;;;-7.00;1.00;;;;;;5030164;28;20204;-76
2024/01/09 05:44:01;;;;;;;19.83;8.47;;;-6.90;39.30;;;;;;5032204;28;20310;-76
2024/01/09 05:46:28;;;;;;;18.97;7.97;;;-6.90;1.00;;;;;;5032308;28;20207;-76
2024/01/09 05:48:55;;;;;;;17.13;8.17;;;-6.90;99.90;;;;;;5033038;28;20705;-76
2024/01/09 05:51:22;;;;;;;17.57;8.17;;;-7.00;99.90;;;;;;5033516;28;20206;-78
2024/01/09 05:53:48;;;;;;;16.40;7.27;;;-7.00;99.90;;;;;;5032814;28;20218;-76
2024/01/09 05:56:17;;;;;;;16.73;8.47;;;-6.90;99.90;;;;;;5030939;28;20218;-75
2024/01/09 05:58:43;;;;;;;19.90;8.60;;;-7.00;99.90;;;;;;5031266;28;20294;-76
2024/01/09 06:01:11;;;;;;;17.80;7.87;;;-7.00;99.90;;;;;;5035311;28;20200;-76
2024/01/09 06:03:38;;;;;;;19.90;8.93;;;-6.90;99.90;;;;;;5035627;28;20223;-77
2024/01/09 06:06:05;;;;;;;18.77;8.27;;;-7.00;99.90;;;;;;5040828;28;20290;-75
2024/01/09 06:08:32;;;;;;;21.03;8.40;;;-6.90;99.90;;;;;;5033900;28;20203;-75
2024/01/09 06:10:59;;;;;;;19.67;8.37;;;-6.90;99.90;;;;;;5035130;28;20208;-76
2024/01/09 06:13:27;;;;;;;17.03;8.37;;;-7.00;99.90;;;;;;5034185;28;20229;-76
2024/01/09 06:15:53;;;;;;;15.13;6.87;;;-6.90;99.90;;;;;;5037417;28;20211;-76
2024/01/09 06:18:20;;;;;;;19.03;7.93;;;-6.90;99.90;;;;;;5033382;28;20578;-76
2024/01/09 06:20:47;;;;;;;19.23;8.57;;;-7.00;1.00;;;;;;5035478;28;20199;-75
2024/01/09 06:23:14;;;;;;;16.50;7.60;;;-7.00;77.70;;;;;;5035406;28;20220;-76
2024/01/09 06:25:40;;;;;;;18.07;7.40;;;-7.00;1.00;;;;;;5032270;28;20203;-76
2024/01/09 06:28:07;;;;;;;22.00;9.60;;;-6.90;1.00;;;;;;5034170;28;20200;-76
2024/01/09 06:30:35;;;;;;;19.60;9.07;;;-7.00;1.00;;;;;;5033953;28;20196;-76
2024/01/09 06:33:03;;;;;;;18.73;8.57;;;-6.90;39.90;;;;;;5032899;28;20591;-76
2024/01/09 06:35:29;;;;;;;15.73;6.83;;;-7.00;1.00;;;;;;5030210;28;20205;-76
2024/01/09 06:37:56;;;;;;;16.27;7.00;;;-7.00;1.00;;;;;;5030677;28;20212;-76
2024/01/09 06:40:24;;;;;;;22.23;8.80;;;-7.00;37.50;;;;;;5026628;28;20206;-76
2024/01/09 06:42:50;;;;;;;18.00;7.67;;;-7.00;1.00;;;;;;5029526;28;20200;-75
2024/01/09 06:45:17;;;;;;;16.80;7.60;;;-6.90;1.00;;;;;;5029436;28;20239;-76
2024/01/09 06:47:45;;;;;;;22.13;9.33;;;-7.00;14.40;;;;;;5028944;28;20579;-75
2024/01/09 06:50:12;;;;;;;13.27;5.57;;;-7.00;92.40;;;;;;5031683;28;20201;-76
2024/01/09 06:52:39;;;;;;;18.20;7.83;;;-7.00;1.00;;;;;;5031920;28;20590;-76
2024/01/09 06:55:07;;;;;;;13.27;6.33;;;-7.00;1.00;;;;;;5030818;28;20200;-76
2024/01/09 06:57:33;;;;;;;20.77;9.47;;;-7.00;76.50;;;;;;5029952;28;20200;-76
2024/01/09 07:00:00;;;;;;;18.77;8.10;;;-7.00;1.00;;;;;;5030303;28;20199;-76
2024/01/09 07:02:27;;;;;;;14.90;6.93;;;-7.00;12.80;;;;;;5033658;28;20223;-76
2024/01/09 07:04:56;;;;;;;15.00;7.07;;;-7.10;1.00;;;;;;5038560;28;20255;-76
2024/01/09 07:07:23;;;;;;;22.23;7.90;;;-7.00;1.00;;;;;;5046185;28;20294;-76
2024/01/09 07:09:50;;;;;;;20.13;8.93;;;-7.00;1.00;;;;;;5045206;28;20195;-76
2024/01/09 07:12:17;;;;;;;17.47;7.60;;;-7.10;1.00;;;;;;5038256;28;20203;-77
2024/01/09 07:14:44;;;;;;;19.20;8.57;;;-7.10;94.90;;;;;;5044806;28;20219;-76
2024/01/09 07:17:11;;;;;;;16.93;7.73;;;-7.10;41.60;;;;;;5036244;28;20702;-76
2024/01/09 07:19:38;;;;;;;20.03;8.97;;;-7.10;74.60;;;;;;5035414;28;20218;-76
2024/01/09 07:22:06;;;;;;;22.60;9.60;;;-7.10;99.90;;;;;;5039836;28;20572;-76
2024/01/09 07:24:33;;;;;;;21.83;8.53;;;-7.10;99.90;;;;;;5039405;28;20231;-76
2024/01/09 07:26:59;;;;;;;15.00;6.93;;;-7.10;99.90;;;;;;5035909;28;20222;-76
2024/01/09 07:29:26;;;;;;;20.73;9.43;;;-7.10;26.80;;;;;;5035511;28;20207;-76
2024/01/09 07:31:53;;;;;;;22.10;8.87;;;-7.10;99.90;;;;;;5034300;28;20195;-76
2024/01/09 07:34:20;;;;;;;18.97;8.70;;;-7.10;99.90;;;;;;5034510;28;20219;-77
2024/01/09 07:36:46;;;;;;;21.27;9.57;;;-7.20;65.40;;;;;;5034789;28;20196;-77
2024/01/09 07:39:15;;;;;;;22.40;9.80;;;-7.20;1.00;;;;;;5034871;28;20196;-76
2024/01/09 07:41:41;;;;;;;21.93;9.50;;;-7.10;94.20;;;;;;5033518;28;20290;-76
2024/01/09 07:44:08;;;;;;;21.97;9.73;;;-7.10;99.90;;;;;;5032914;28;20220;-77
2024/01/09 07:46:35;;;;;;;19.50;8.00;;;-7.00;99.90;;;;;;5033654;28;20195;-77
2024/01/09 07:49:02;;;;;;;20.23;9.17;;;-7.10;54.10;;;;;;5032495;28;20218;-77
2024/01/09 07:51:29;;;;;;;17.53;7.67;;;-7.10;99.90;;;;;;5036386;28;20536;-77
2024/01/09 07:53:56;;;;;;;20.53;9.13;;;-7.10;92.60;;;;;;5035699;28;20231;-77
2024/01/09 07:56:24;;;;;;;20.70;8.60;;;-7.10;99.90;;;;;;5034797;28;20202;-76
2024/01/09 07:58:51;;;;;;;22.30;9.23;;;-7.10;99.90;;;;;;5032697;28;20749;-76
2024/01/09 08:01:18;;;;;;;17.40;8.53;;;-7.10;99.90;;;;;;5040633;28;20574;-77
2024/01/09 08:03:45;;;;;;;19.00;7.97;;;-7.10;41.90;;;;;;5039595;28;20314;-76
2024/01/09 08:06:14;;;;;;;19.83;8.03;;;-7.00;33.70;;;;;;5039795;28;20572;-77
2024/01/09 08:08:41;;;;;;;22.87;9.70;;;-7.00;1.00;;;;;;5037355;28;20680;-77
2024/01/09 08:11:09;;;;;;;19.93;8.87;;;-7.00;98.40;;;;;;5037524;28;20585;-77
2024/01/09 08:13:38;;;;;;;21.33;8.77;;;-7.00;40.90;;;;;;5036492;28;20223;-77
2024/01/09 08:16:05;;;;;;;18.87;8.50;;;-7.00;1.00;;;;;;5042020;28;20585;-77
2024/01/09 08:18:33;;;;;;;17.43;8.60;;;-7.00;1.00;;;;;;5038817;28;20338;-77
2024/01/09 08:20:59;;;;;;;19.97;9.03;;;-6.70;1.00;;;;;;5038104;28;20681;-77
2024/01/09 08:23:27;;;;;;;21.77;9.83;;;-6.70;1.00;;;;;;5036841;28;20230;-77
2024/01/09 08:25:53;;;;;;;21.13;9.90;;;-6.60;1.00;;;;;;5041056;28;20591;-77
2024/01/09 08:28:20;;;;;;;21.30;9.03;;;-6.40;1.00;;;;;;5037968;28;20682;-77
2024/01/09 08:30:48;;;;;;;23.47;10.30;;;-6.40;1.00;;;;;;5035216;28;20203;-76
2024/01/09 08:33:15;;;;;;;18.23;8.37;;;-6.40;1.00;;;;;;5037086;28;20216;-77
2024/01/09 08:35:43;;;;;;;19.53;8.23;;;-6.40;1.00;;;;;;5036992;28;20680;-77
2024/01/09 08:38:11;;;;;;;20.50;9.83;;;-6.50;1.00;;;;;;5035678;28;20270;-77
2024/01/09 08:40:37;;;;;;;20.80;9.53;;;-6.10;1.00;;;;;;5033128;28;20208;-77
2024/01/09 08:43:04;;;;;;;21.93;9.60;;;-6.00;1.00;;;;;;5035379;28;20223;-77
2024/01/09 08:45:31;;;;;;;19.20;9.00;;;-5.60;1.00;;;;;;5033557;28;20223;-77
2024/01/09 08:47:59;;;;;;;18.73;7.90;;;-5.70;1.00;;;;;;5033171;28;20203;-77
2024/01/09 08:50:26;;;;;;;17.33;7.77;;;-5.90;1.00;;;;;;5033048;28;20286;-77
2024/01/09 08:52:54;;;;;;;21.03;9.70;;;-6.40;1.00;;;;;;5032488;28;20571;-77
2024/01/09 08:55:21;;;;;;;18.07;8.40;;;-6.00;1.00;;;;;;5034879;28;20200;-77
2024/01/09 08:57:49;;;;;;;20.03;8.43;;;-6.30;1.00;;;;;;5033611;28;20306;-77
2024/01/09 09:00:16;;;;;;;19.70;10.37;;;-6.20;1.00;;;;;;5039941;28;20207;-77
2024/01/09 09:02:43;;;;;;;18.67;8.50;;;-6.10;1.00;;;;;;5032340;28;20205;-77
2024/01/09 09:05:12;;;;;;;20.33;8.03;;;-6.10;1.00;;;;;;5039329;28;20216;-77
2024/01/09 09:07:38;;;;;;;20.67;9.10;;;-6.10;1.00;;;;;;5047997;28;20199;-77
2024/01/09 09:10:06;;;;;;;20.20;9.20;;;-6.20;1.00;;;;;;5038565;28;20198;-77
2024/01/09 09:12:34;;;;;;;15.90;5.73;;;-5.90;1.00;;;;;;5045941;28;20202;-77
2024/01/09 09:15:02;;;;;;;18.17;8.23;;;-6.00;99.90;;;;;;5044514;28;20225;-77
2024/01/09 09:17:30;;;;;;;19.97;9.70;;;-6.30;1.00;;;;;;5041793;28;20211;-77
2024/01/09 09:19:57;;;;;;;21.97;10.73;;;-6.20;1.00;;;;;;5041197;28;20214;-77
2024/01/09 09:22:26;;;;;;;22.07;9.97;;;-6.30;1.00;;;;;;5039144;28;20200;-77
2024/01/09 09:24:53;;;;;;;24.43;11.10;;;-5.80;1.00;;;;;;5038603;28;20216;-77
2024/01/09 09:27:20;;;;;;;22.93;10.77;;;-5.90;99.90;;;;;;5038211;28;20195;-77
2024/01/09 09:29:47;;;;;;;22.83;9.93;;;-5.60;99.90;;;;;;5041283;28;20211;-77
2024/01/09 09:32:13;;;;;;;21.90;10.23;;;-5.30;99.90;;;;;;5037551;28;20204;-77
2024/01/09 09:34:41;;;;;;;11.50;5.40;;;-5.30;99.90;;;;;;5037421;28;20219;-77
2024/01/09 09:37:08;;;;;;;22.93;10.53;;;-5.80;99.90;;;;;;5034341;28;20595;-77
2024/01/09 09:39:36;;;;;;;16.87;8.30;;;-5.70;99.90;;;;;;5032760;28;20203;-77
2024/01/09 09:42:03;;;;;;;20.17;9.93;;;-5.50;99.90;;;;;;5033091;28;20588;-76
2024/01/09 09:44:29;;;;;;;20.73;9.53;;;-5.50;99.90;;;;;;5033778;28;20224;-77
2024/01/09 09:46:56;;;;;;;22.77;10.17;;;-5.10;99.90;;;;;;5033615;28;20199;-77
2024/01/09 09:49:24;;;;;;;20.67;8.67;;;-5.40;99.90;;;;;;5027707;28;20195;-77
2024/01/09 09:51:51;;;;;;;22.80;10.17;;;-5.50;99.90;;;;;;5031724;28;20204;-77
2024/01/09 09:54:19;;;;;;;22.77;9.63;;;-5.60;99.90;;;;;;5031049;28;20219;-77
2024/01/09 09:56:48;;;;;;;25.80;10.67;;;-5.60;99.90;;;;;;5031878;28;20206;-77
2024/01/09 09:59:16;;;;;;;12.73;6.30;;;-5.60;99.90;;;;;;5035591;28;20203;-77
2024/01/09 10:01:44;;;;;;;15.70;6.50;;;-5.50;99.90;;;;;;5044520;28;20230;-77
2024/01/09 10:04:27;;;;;;;16.40;7.37;;;-5.50;99.90;;;;;;5031267;28;20596;-77
2024/01/09 10:06:56;;;;;;;14.07;6.67;;;-5.30;99.90;;;;;;5038347;28;20222;-77
2024/01/09 10:09:29;;;;;;;16.33;5.80;;;-5.30;99.90;;;;;;5040960;28;20200;-77
2024/01/09 10:11:57;;;;;;;22.13;10.27;;;-5.40;99.90;;;;;;5041566;28;20208;-77
2024/01/09 10:14:24;;;;;;;20.87;9.13;;;-5.20;99.90;;;;;;5042549;28;20225;-77
2024/01/09 10:16:53;;;;;;;23.30;11.20;;;-5.00;99.90;;;;;;5039892;28;20648;-77
2024/01/09 10:19:21;;;;;;;17.33;7.03;;;-5.00;99.90;;;;;;5039714;28;20196;-77
2024/01/09 10:21:48;;;;;;;12.17;5.37;;;-5.00;99.90;;;;;;5042652;28;20206;-77
2024/01/09 10:24:15;;;;;;;15.07;6.63;;;-4.90;99.90;;;;;;5038464;28;20220;-77
2024/01/09 10:26:42;;;;;;;17.37;6.57;;;-4.80;99.90;;;;;;5036443;28;20215;-77
2024/01/09 10:29:11;;;;;;;14.83;5.27;;;-4.80;98.00;;;;;;5034579;28;20203;-77
2024/01/09 10:31:39;;;;;;;11.17;4.60;;;-4.70;99.90;;;;;;5036121;28;20203;-77
2024/01/09 10:34:06;;;;;;;12.60;6.67;;;-4.70;99.90;;;;;;5036564;28;20233;-77
2024/01/09 10:36:32;;;;;;;11.43;5.10;;;-4.70;90.60;;;;;;5035871;28;20571;-77
2024/01/09 10:39:04;;;;;;;9.93;4.00;;;-4.80;99.90;;;;;;5039172;28;20207;-76
2024/01/09 10:41:32;;;;;;;14.10;6.80;;;-4.80;93.20;;;;;;5038258;28;20195;-76
2024/01/09 10:44:00;;;;;;;13.40;6.10;;;-4.80;30.70;;;;;;5035911;28;20227;-76
2024/01/09 10:46:31;;;;;;;19.80;8.60;;;-4.80;55.80;;;;;;5034961;28;20223;-77
2024/01/09 10:48:58;;;;;;;9.87;3.80;;;-4.70;72.30;;;;;;5035363;28;20242;-77
2024/01/09 10:51:25;;;;;;;13.33;5.47;;;-4.80;17.50;;;;;;5034472;28;20258;-77
2024/01/09 10:53:53;;;;;;;14.73;6.40;;;-4.80;1.00;;;;;;5034166;28;20224;-77
2024/01/09 10:56:22;;;;;;;16.50;7.43;;;-4.60;36.80;;;;;;5033068;28;20198;-76
2024/01/09 10:58:50;;;;;;;12.83;5.50;;;-4.80;1.00;;;;;;5034597;28;20265;-76
2024/01/09 11:01:17;;;;;;;10.63;3.90;;;-4.80;1.00;;;;;;5041695;28;20590;-77
2024/01/09 11:03:47;;;;;;;7.53;3.80;;;-4.70;1.00;;;;;;5047511;28;20215;-77
2024/01/09 11:06:17;;;;;;;4.40;2.00;;;-4.70;1.00;;;;;;5034498;28;20624;-77
2024/01/09 11:08:49;;;;;;;13.23;5.43;;;-4.80;1.00;;;;;;5042133;28;20204;-76
2024/01/09 11:11:19;;;;;;;14.60;7.23;;;-4.80;1.00;;;;;;5034368;28;20666;-77
2024/01/09 11:13:51;;;;;;;7.97;4.17;;;-4.70;1.00;;;;;;5039272;28;20270;-76
2024/01/09 11:16:19;;;;;;;6.77;4.07;;;-4.70;1.00;;;;;;5032654;28;20206;-76
2024/01/09 11:18:49;;;;;;;19.00;7.60;;;-4.70;1.00;;;;;;5038024;28;20214;-78
2024/01/09 11:21:18;;;;;;;9.43;4.17;;;-4.50;1.00;;;;;;5044514;28;20211;-78
2024/01/09 11:23:54;;;;;;;11.23;5.07;;;-4.50;1.00;;;;;;5034274;28;20222;-77
2024/01/09 11:26:22;;;;;;;9.27;4.67;;;-4.50;1.00;;;;;;5031909;28;20589;-77
2024/01/09 11:28:49;;;;;;;13.87;4.90;;;-4.50;1.00;;;;;;5038865;28;20212;-77
2024/01/09 11:31:20;;;;;;;13.77;5.87;;;-4.50;1.00;;;;;;5036574;28;20202;-77
2024/01/09 11:33:48;;;;;;;15.80;6.00;;;-4.40;1.00;;;;;;5036297;28;20310;-78
2024/01/09 11:36:23;;;;;;;22.23;9.37;;;-4.30;1.00;;;;;;5035285;28;20237;-77
2024/01/09 11:38:52;;;;;;;7.40;3.30;;;-4.20;1.00;;;;;;5038081;28;20298;-77
2024/01/09 11:41:18;;;;;;;13.43;4.53;;;-4.30;1.00;;;;;;5033179;28;20204;-77
2024/01/09 11:43:58;;;;;;;20.10;8.37;;;-4.40;1.00;;;;;;5035825;28;20215;-77
2024/01/09 11:46:26;;;;;;;6.50;2.73;;;-4.40;1.00;;;;;;5028194;28;20281;-78
2024/01/09 11:48:55;;;;;;;12.87;4.97;;;-4.30;1.00;;;;;;5037420;28;20195;-77
2024/01/09 11:51:22;;;;;;;4.47;2.90;;;-4.20;1.00;;;;;;5027380;28;20203;-77
2024/01/09 11:53:50;;;;;;;8.97;4.60;;;-4.10;1.00;;;;;;5033434;28;20219;-77
2024/01/09 11:56:17;;;;;;;7.70;4.17;;;-4.10;1.00;;;;;;5034044;28;20203;-78
2024/01/09 11:58:44;;;;;;;11.33;4.30;;;-4.10;1.00;;;;;;5042037;28;20290;-77
2024/01/09 12:01:11;;;;;;;4.77;2.73;;;-4.20;1.00;;;;;;5033328;28;20757;-77
2024/01/09 12:03:38;;;;;;;14.93;6.20;;;-4.20;1.00;;;;;;5040332;28;20296;-77
2024/01/09 12:06:07;;;;;;;8.03;3.43;;;-4.00;1.00;;;;;;5050221;28;20233;-77
2024/01/09 12:08:34;;;;;;;18.30;8.53;;;-3.80;1.00;;;;;;5026678;28;20655;-78
2024/01/09 12:11:02;;;;;;;8.03;3.80;;;-3.40;1.00;;;;;;5041978;28;20203;-77
2024/01/09 12:13:29;;;;;;;11.63;4.70;;;-3.80;1.00;;;;;;5027430;28;20242;-77
2024/01/09 12:15:56;;;;;;;14.00;5.33;;;-3.70;1.00;;;;;;5033429;28;20211;-77
2024/01/09 12:18:23;;;;;;;7.10;2.63;;;-3.80;1.00;;;;;;5033338;28;20204;-77
2024/01/09 12:20:50;;;;;;;9.47;5.00;;;-4.00;1.00;;;;;;5033312;28;20585;-78
2024/01/09 12:23:19;;;;;;;10.60;5.10;;;-3.90;1.00;;;;;;5032808;28;20572;-77
2024/01/09 12:25:48;;;;;;;10.70;3.70;;;-3.70;1.00;;;;;;5033520;28;20215;-77
2024/01/09 12:28:15;;;;;;;8.67;3.87;;;-4.00;1.00;;;;;;5035465;28;20214;-77
2024/01/09 12:30:43;;;;;;;12.40;5.40;;;-3.90;1.00;;;;;;5037742;28;20295;-78
2024/01/09 12:33:09;;;;;;;6.03;3.40;;;-3.80;1.00;;;;;;5033522;28;20453;-77
2024/01/09 12:35:37;;;;;;;11.03;4.77;;;-3.80;1.00;;;;;;5035620;28;20196;-77
2024/01/09 12:38:05;;;;;;;11.23;4.50;;;-3.60;1.00;;;;;;5040298;28;20199;-77
2024/01/09 12:40:34;;;;;;;9.63;4.70;;;-3.90;1.00;;;;;;5033185;28;20199;-77
2024/01/09 12:43:11;;;;;;;7.73;4.63;;;-3.40;1.00;;;;;;5032435;28;20215;-78